Time;durP1;ratioP1;P1;durP2;ratioP2;P2;SDS_P1;SDS_P2;PMS_P1;PMS_P2;Temp;Humidity;BMP_temperature;BMP_pressure;BME280_temperature;BME280_humidity;BME280_pressure;Samples;Min_cycle;Max_cycle;Signal;HPM_P1;HPM_P2
2022/07/29 00:00:45;;;;;;;4.22;1.30;;;15.40;99.90;;;;;;5094145;28;20028;-70
2022/07/29 00:03:12;;;;;;;2.78;1.65;;;15.40;99.90;;;;;;5094146;28;20081;-69
2022/07/29 00:05:41;;;;;;;5.38;1.70;;;15.40;99.90;;;;;;5094242;28;20040;-69
2022/07/29 00:08:08;;;;;;;5.68;1.70;;;15.30;99.90;;;;;;5094218;28;20032;-69
2022/07/29 00:10:33;;;;;;;4.07;1.25;;;15.40;99.90;;;;;;5093816;28;20409;-70
2022/07/29 00:12:59;;;;;;;2.95;1.60;;;15.30;99.90;;;;;;5093914;28;20044;-70
2022/07/29 00:15:25;;;;;;;4.15;1.50;;;15.30;99.90;;;;;;5094113;28;20509;-69
2022/07/29 00:17:50;;;;;;;2.97;1.50;;;15.30;99.90;;;;;;5093850;28;20032;-69
2022/07/29 00:20:16;;;;;;;4.90;1.60;;;15.40;99.90;;;;;;5093570;28;20112;-69
2022/07/29 00:22:41;;;;;;;3.88;1.52;;;15.40;99.90;;;;;;5093851;28;20152;-69
2022/07/29 00:25:07;;;;;;;2.45;1.25;;;15.40;99.90;;;;;;5093886;28;20035;-68
2022/07/29 00:27:34;;;;;;;1.70;1.35;;;15.50;99.90;;;;;;5092507;28;20248;-68
2022/07/29 00:29:59;;;;;;;3.05;1.27;;;15.50;99.90;;;;;;5093359;28;20043;-69
2022/07/29 00:32:25;;;;;;;4.85;1.77;;;15.50;99.90;;;;;;5093386;28;20040;-69
2022/07/29 00:37:35;;;;;;;5.03;1.80;;;15.50;99.90;;;;;;5092691;28;20044;-69
2022/07/29 00:40:00;;;;;;;2.88;1.50;;;15.50;99.90;;;;;;5092991;28;20048;-69
2022/07/29 00:42:26;;;;;;;2.42;1.50;;;15.50;99.90;;;;;;5093521;28;20040;-69
2022/07/29 00:44:51;;;;;;;3.55;1.58;;;15.40;99.90;;;;;;5093406;28;20032;-69
2022/07/29 00:47:17;;;;;;;4.75;1.60;;;15.50;99.90;;;;;;5093429;28;20047;-69
2022/07/29 00:49:43;;;;;;;3.72;1.70;;;15.60;99.90;;;;;;5092956;28;20044;-69
2022/07/29 00:52:10;;;;;;;4.18;1.90;;;15.50;99.90;;;;;;5093285;28;20048;-69
2022/07/29 00:54:38;;;;;;;3.55;1.80;;;15.40;99.90;;;;;;5093449;28;20028;-69
2022/07/29 00:57:06;;;;;;;5.03;2.00;;;15.50;99.90;;;;;;5093272;28;20032;-68
2022/07/29 00:59:31;;;;;;;6.63;2.00;;;15.50;99.90;;;;;;5091606;28;20221;-69
2022/07/29 01:01:57;;;;;;;6.72;2.05;;;15.50;99.90;;;;;;5093119;28;20063;-69
2022/07/29 01:04:23;;;;;;;3.75;2.05;;;15.60;99.90;;;;;;5093104;28;20048;-69
2022/07/29 01:06:49;;;;;;;4.10;2.10;;;15.60;99.90;;;;;;5093374;28;20038;-68
2022/07/29 01:09:15;;;;;;;4.35;1.83;;;15.50;99.90;;;;;;5092777;28;20409;-68
2022/07/29 01:11:42;;;;;;;3.13;1.77;;;15.50;99.90;;;;;;5093189;28;20044;-69
2022/07/29 01:14:09;;;;;;;3.75;1.73;;;15.50;99.90;;;;;;5092916;28;20040;-69
2022/07/29 01:17:01;;;;;;;3.38;1.58;;;15.50;99.90;;;;;;5092829;28;20043;-69
2022/07/29 01:19:35;;;;;;;3.97;1.70;;;15.50;99.90;;;;;;5092674;28;20040;-68
2022/07/29 01:22:13;;;;;;;3.63;2.05;;;15.50;99.90;;;;;;5092915;28;20046;-69
2022/07/29 01:25:06;;;;;;;3.72;1.80;;;15.60;99.90;;;;;;5092721;28;20417;-69
2022/07/29 01:27:43;;;;;;;3.42;1.80;;;15.60;99.90;;;;;;5092963;28;20447;-69
2022/07/29 01:30:10;;;;;;;2.35;1.58;;;15.50;99.90;;;;;;5091118;28;20434;-69
2022/07/29 01:32:38;;;;;;;4.43;2.00;;;15.60;99.90;;;;;;5092609;28;20450;-68
2022/07/29 01:35:22;;;;;;;3.88;1.63;;;15.60;99.90;;;;;;5092565;28;20036;-69
2022/07/29 01:37:57;;;;;;;4.43;1.55;;;15.60;99.90;;;;;;5092603;28;20044;-69
2022/07/29 01:40:38;;;;;;;3.72;1.38;;;15.60;99.90;;;;;;5092349;28;20081;-69
2022/07/29 01:43:11;;;;;;;4.32;2.00;;;15.60;99.90;;;;;;5092090;28;20052;-68
2022/07/29 01:46:02;;;;;;;4.70;1.48;;;15.50;99.90;;;;;;5091015;28;20048;-68
2022/07/29 01:48:36;;;;;;;4.70;1.75;;;15.60;99.90;;;;;;5084962;28;20058;-69
2022/07/29 01:51:07;;;;;;;2.47;1.40;;;15.50;99.90;;;;;;5092019;28;20497;-69
2022/07/29 01:53:43;;;;;;;4.00;1.38;;;15.50;99.90;;;;;;5092152;28;20047;-68
2022/07/29 01:56:11;;;;;;;2.08;1.23;;;15.60;99.90;;;;;;5091116;28;20040;-68
2022/07/29 01:58:40;;;;;;;4.55;1.50;;;15.60;99.90;;;;;;5092300;28;20036;-69
2022/07/29 02:01:08;;;;;;;5.07;1.65;;;15.60;99.90;;;;;;5091979;28;20036;-68
2022/07/29 02:03:36;;;;;;;3.03;1.58;;;15.60;99.90;;;;;;5092137;28;20056;-69
2022/07/29 02:06:04;;;;;;;6.55;1.40;;;15.60;99.90;;;;;;5090654;28;20490;-68
2022/07/29 02:08:32;;;;;;;3.67;1.40;;;15.60;99.90;;;;;;5091914;28;20047;-68
2022/07/29 02:11:00;;;;;;;6.13;1.80;;;15.60;99.90;;;;;;5091887;28;20051;-69
2022/07/29 02:13:27;;;;;;;1.85;1.02;;;15.60;99.90;;;;;;5092380;28;20051;-69
2022/07/29 02:15:55;;;;;;;2.53;1.30;;;15.60;99.90;;;;;;5092338;28;20090;-68
2022/07/29 02:18:24;;;;;;;2.20;1.38;;;15.60;99.90;;;;;;5090996;28;20711;-69
2022/07/29 02:20:54;;;;;;;2.67;1.27;;;15.60;99.90;;;;;;5090261;28;20044;-69
2022/07/29 02:23:22;;;;;;;4.82;1.70;;;15.60;99.90;;;;;;5091593;28;20080;-68
2022/07/29 02:25:56;;;;;;;4.80;1.45;;;15.70;99.90;;;;;;5092000;28;20052;-68
2022/07/29 02:28:24;;;;;;;4.20;1.30;;;15.60;99.90;;;;;;5091820;28;20040;-69
2022/07/29 02:30:52;;;;;;;2.97;1.85;;;15.60;99.90;;;;;;5090438;28;20078;-69
2022/07/29 02:33:19;;;;;;;2.78;1.40;;;15.60;99.90;;;;;;5091323;28;20547;-69
2022/07/29 02:35:46;;;;;;;4.82;1.83;;;15.60;99.90;;;;;;5117030;28;20038;-69
2022/07/29 02:41:01;;;;;;;2.17;1.55;;;15.60;99.90;;;;;;5131825;28;20043;-68
2022/07/29 02:43:29;;;;;;;4.93;1.60;;;15.60;99.90;;;;;;5132537;27;20039;-69
2022/07/29 02:45:57;;;;;;;3.78;1.58;;;15.60;99.90;;;;;;5132324;27;20035;-68
2022/07/29 02:48:31;;;;;;;2.20;1.30;;;15.60;99.90;;;;;;5130737;28;20096;-69
2022/07/29 02:51:05;;;;;;;4.50;1.80;;;15.60;99.90;;;;;;5131072;28;20504;-68
2022/07/29 02:53:34;;;;;;;2.28;1.40;;;15.60;99.90;;;;;;5131777;27;20043;-68
2022/07/29 02:56:06;;;;;;;5.40;1.80;;;15.60;99.90;;;;;;5135190;27;20457;-69
2022/07/29 02:58:35;;;;;;;3.38;1.20;;;15.60;99.90;;;;;;5136134;27;20036;-69
2022/07/29 03:01:21;;;;;;;2.42;1.60;;;15.60;99.90;;;;;;5136217;27;20046;-68
2022/07/29 03:03:48;;;;;;;3.92;1.70;;;15.60;99.90;;;;;;5136523;27;20077;-69
2022/07/29 03:06:15;;;;;;;7.25;1.45;;;15.60;99.90;;;;;;5136413;27;20077;-68
2022/07/29 03:08:42;;;;;;;4.43;1.40;;;15.60;99.90;;;;;;5136048;27;20046;-68
2022/07/29 03:11:08;;;;;;;4.20;1.50;;;15.60;99.90;;;;;;5135958;27;20042;-69
2022/07/29 03:13:35;;;;;;;3.58;1.45;;;15.60;99.90;;;;;;5136403;27;20050;-69
2022/07/29 03:16:02;;;;;;;4.80;1.70;;;15.60;99.90;;;;;;5136352;27;20059;-68
2022/07/29 03:18:28;;;;;;;2.45;1.30;;;15.60;99.90;;;;;;5136151;27;20043;-68
2022/07/29 03:20:54;;;;;;;3.08;1.40;;;15.50;99.90;;;;;;5135770;27;20042;-68
2022/07/29 03:23:22;;;;;;;3.35;1.80;;;15.50;99.90;;;;;;5134794;27;20118;-68
2022/07/29 03:25:48;;;;;;;7.35;2.22;;;15.50;99.90;;;;;;5117544;27;20064;-68
2022/07/29 03:28:14;;;;;;;4.78;1.50;;;15.50;99.90;;;;;;5136073;27;20565;-68
2022/07/29 03:30:40;;;;;;;5.63;1.50;;;15.60;99.90;;;;;;5134572;27;20058;-68
2022/07/29 03:33:06;;;;;;;2.90;1.33;;;15.50;99.90;;;;;;5135737;27;20043;-68
2022/07/29 03:35:31;;;;;;;3.45;1.38;;;15.60;99.90;;;;;;5135810;27;20495;-69
2022/07/29 03:37:58;;;;;;;3.58;1.40;;;15.50;99.90;;;;;;5134258;27;20118;-69
2022/07/29 03:40:38;;;;;;;5.75;1.35;;;15.60;99.90;;;;;;5135222;27;20039;-69
2022/07/29 03:43:05;;;;;;;3.05;1.42;;;15.50;99.90;;;;;;5135903;27;20074;-69
2022/07/29 03:45:33;;;;;;;3.92;1.70;;;15.60;99.90;;;;;;5134352;27;20043;-69
2022/07/29 03:48:05;;;;;;;5.80;1.58;;;15.50;99.90;;;;;;5135224;27;20043;-69
2022/07/29 03:50:32;;;;;;;2.83;1.10;;;15.50;99.90;;;;;;5135116;27;20054;-69
2022/07/29 03:53:00;;;;;;;3.05;1.45;;;15.50;99.90;;;;;;5135213;27;20075;-69
2022/07/29 03:55:28;;;;;;;3.38;1.50;;;15.50;99.90;;;;;;5135434;27;20492;-68
2022/07/29 03:57:56;;;;;;;3.85;1.10;;;15.50;99.90;;;;;;5135345;27;20171;-69
2022/07/29 04:00:24;;;;;;;3.67;1.50;;;15.50;99.90;;;;;;5135090;27;20035;-68
2022/07/29 04:02:50;;;;;;;3.03;1.50;;;15.50;99.90;;;;;;5135284;27;20122;-68
2022/07/29 04:05:18;;;;;;;5.28;1.77;;;15.50;99.90;;;;;;5135231;27;20039;-69
2022/07/29 04:07:45;;;;;;;3.58;1.65;;;15.50;99.90;;;;;;5133078;27;20114;-68
2022/07/29 04:10:11;;;;;;;4.90;1.90;;;15.50;99.90;;;;;;5135052;27;20114;-69
2022/07/29 04:12:37;;;;;;;5.82;1.80;;;15.50;99.90;;;;;;5133687;27;20118;-69
2022/07/29 04:15:04;;;;;;;4.00;1.75;;;15.50;99.90;;;;;;5135175;27;20042;-69
2022/07/29 04:17:30;;;;;;;5.40;1.70;;;15.50;99.90;;;;;;5134996;27;20442;-69
2022/07/29 04:19:55;;;;;;;5.53;1.52;;;15.50;99.90;;;;;;5133094;27;20039;-69
2022/07/29 04:22:21;;;;;;;2.38;1.20;;;15.50;99.90;;;;;;5134880;27;20104;-69
2022/07/29 04:24:46;;;;;;;4.55;1.75;;;15.60;99.90;;;;;;5134886;27;20114;-69
2022/07/29 04:27:12;;;;;;;4.05;1.50;;;15.60;99.90;;;;;;5133801;27;20035;-69
2022/07/29 04:29:37;;;;;;;4.07;1.38;;;15.50;99.90;;;;;;5134239;27;20115;-69
2022/07/29 04:32:03;;;;;;;6.63;1.80;;;15.50;99.90;;;;;;5133077;27;20054;-69
2022/07/29 04:34:29;;;;;;;2.65;1.30;;;15.60;99.90;;;;;;5134594;27;20114;-69
2022/07/29 04:36:55;;;;;;;4.43;1.67;;;15.50;99.90;;;;;;5133015;27;20488;-69
2022/07/29 04:39:21;;;;;;;5.18;1.67;;;15.60;99.90;;;;;;5115710;27;20035;-69
2022/07/29 04:41:47;;;;;;;8.68;3.10;;;15.60;99.90;;;;;;5116264;27;20047;-69
2022/07/29 04:44:12;;;;;;;4.72;1.52;;;15.60;99.90;;;;;;5102897;28;20084;-69
2022/07/29 04:46:38;;;;;;;2.47;1.63;;;15.60;99.90;;;;;;5093386;28;20472;-70
2022/07/29 04:49:04;;;;;;;4.55;1.60;;;15.60;99.90;;;;;;5093430;28;20040;-68
2022/07/29 04:51:29;;;;;;;3.40;1.70;;;15.60;99.90;;;;;;5093087;28;20045;-68
2022/07/29 04:53:55;;;;;;;4.88;1.58;;;15.70;99.90;;;;;;5092012;28;20413;-68
2022/07/29 04:56:21;;;;;;;6.28;1.48;;;15.60;99.90;;;;;;5093306;28;20036;-68
2022/07/29 04:58:47;;;;;;;5.55;1.70;;;15.60;99.90;;;;;;5093107;28;20154;-68
2022/07/29 05:01:14;;;;;;;3.42;1.40;;;15.60;99.90;;;;;;5092691;28;20121;-68
2022/07/29 05:03:39;;;;;;;5.32;1.60;;;15.60;99.90;;;;;;5091495;28;20044;-68
2022/07/29 05:06:05;;;;;;;5.30;1.50;;;15.70;99.90;;;;;;5093304;28;20123;-68
2022/07/29 05:08:30;;;;;;;10.30;1.88;;;15.60;99.90;;;;;;5092821;28;20511;-68
2022/07/29 05:10:56;;;;;;;5.35;3.05;;;15.60;99.90;;;;;;5092796;28;20039;-69
2022/07/29 05:13:22;;;;;;;3.90;1.45;;;15.60;99.90;;;;;;5092961;28;20213;-68
2022/07/29 05:15:47;;;;;;;3.85;1.60;;;15.60;99.90;;;;;;5092732;28;20036;-68
2022/07/29 05:18:13;;;;;;;3.47;1.60;;;15.70;99.90;;;;;;5091623;28;20055;-68
2022/07/29 05:20:39;;;;;;;3.67;1.63;;;15.60;99.90;;;;;;5091230;28;20651;-68
2022/07/29 05:23:05;;;;;;;7.82;1.70;;;15.80;99.90;;;;;;5092971;28;20039;-68
2022/07/29 05:25:31;;;;;;;2.85;1.60;;;15.70;99.90;;;;;;5092723;28;20032;-69
2022/07/29 05:27:57;;;;;;;3.88;1.58;;;15.70;99.90;;;;;;5092719;28;20398;-68
2022/07/29 05:30:22;;;;;;;5.43;1.67;;;15.80;99.90;;;;;;5091059;28;20047;-68
2022/07/29 05:32:48;;;;;;;3.15;1.33;;;15.70;99.90;;;;;;5097642;28;20040;-69
2022/07/29 05:35:15;;;;;;;4.63;2.53;;;15.80;99.90;;;;;;5092889;28;20036;-69
2022/07/29 05:37:41;;;;;;;6.57;1.98;;;15.80;99.90;;;;;;5092375;28;20490;-68
2022/07/29 05:40:08;;;;;;;2.95;1.67;;;15.80;99.90;;;;;;5092297;28;20042;-71
2022/07/29 05:42:34;;;;;;;6.03;1.60;;;15.80;99.90;;;;;;5091052;28;20050;-70
2022/07/29 05:45:00;;;;;;;5.47;2.00;;;15.90;99.90;;;;;;5092349;28;20044;-71
2022/07/29 05:47:26;;;;;;;4.28;1.60;;;15.80;99.90;;;;;;5090962;28;20044;-71
2022/07/29 05:49:52;;;;;;;3.92;1.80;;;16.00;99.90;;;;;;5099225;22;20075;-68
2022/07/29 05:52:17;;;;;;;3.25;1.63;;;16.00;99.90;;;;;;5069124;28;20513;-68
2022/07/29 05:54:43;;;;;;;6.07;1.88;;;15.90;99.90;;;;;;5068546;28;20063;-69
2022/07/29 05:57:21;;;;;;;6.47;1.60;;;16.00;99.90;;;;;;5068545;28;20464;-69
2022/07/29 05:59:48;;;;;;;6.28;2.05;;;16.00;99.90;;;;;;5069651;28;20525;-69
2022/07/29 06:02:13;;;;;;;4.63;1.90;;;16.00;99.90;;;;;;5069997;28;20093;-69
2022/07/29 06:04:39;;;;;;;3.03;1.70;;;16.00;99.90;;;;;;5070498;28;20048;-69
2022/07/29 06:07:05;;;;;;;4.18;1.60;;;16.00;99.90;;;;;;5070514;28;20457;-67
2022/07/29 06:09:32;;;;;;;4.60;1.80;;;16.00;99.90;;;;;;5071264;28;20040;-67
2022/07/29 06:11:58;;;;;;;3.70;1.42;;;16.00;99.90;;;;;;5071855;28;20043;-68
2022/07/29 06:14:24;;;;;;;4.15;1.63;;;16.10;99.90;;;;;;5071877;28;20116;-67
2022/07/29 06:16:49;;;;;;;4.55;1.83;;;16.10;99.90;;;;;;5071743;28;20442;-67
2022/07/29 06:19:15;;;;;;;6.28;1.73;;;16.20;99.90;;;;;;5071228;28;20124;-68
2022/07/29 06:21:45;;;;;;;2.83;1.52;;;16.20;99.90;;;;;;5070497;28;20029;-67
2022/07/29 06:24:12;;;;;;;5.15;1.88;;;16.30;99.90;;;;;;5071557;28;20486;-67
2022/07/29 06:26:38;;;;;;;5.53;1.70;;;16.20;99.90;;;;;;5071784;28;20095;-69
2022/07/29 06:29:04;;;;;;;4.22;1.63;;;16.30;99.90;;;;;;5071610;28;20032;-67
2022/07/29 06:31:29;;;;;;;6.03;2.25;;;16.30;99.90;;;;;;5069286;28;20043;-68
2022/07/29 06:33:55;;;;;;;4.53;1.58;;;16.30;99.90;;;;;;5070142;28;20087;-68
2022/07/29 06:36:20;;;;;;;6.45;2.03;;;16.30;99.90;;;;;;5071402;28;20047;-67
2022/07/29 06:38:46;;;;;;;7.75;2.13;;;16.40;99.90;;;;;;5071683;28;20040;-68
2022/07/29 06:41:15;;;;;;;5.70;1.65;;;16.30;99.90;;;;;;5071424;28;20036;-68
2022/07/29 06:43:43;;;;;;;4.80;1.92;;;16.40;99.90;;;;;;5071595;28;20121;-67
2022/07/29 06:46:11;;;;;;;5.60;1.70;;;16.40;99.90;;;;;;5070425;28;20037;-68
2022/07/29 06:48:40;;;;;;;9.00;1.90;;;16.40;99.90;;;;;;5071163;28;20041;-67
2022/07/29 06:51:06;;;;;;;4.22;1.30;;;16.40;99.90;;;;;;5071252;28;20036;-68
2022/07/29 06:53:32;;;;;;;7.05;1.90;;;16.50;99.90;;;;;;5071480;28;20520;-69
2022/07/29 06:56:00;;;;;;;3.28;2.08;;;16.60;99.90;;;;;;5070380;28;20028;-69
2022/07/29 06:58:27;;;;;;;4.13;1.85;;;16.60;99.90;;;;;;5070122;28;20523;-69
2022/07/29 07:00:53;;;;;;;4.38;2.40;;;16.70;99.90;;;;;;5069684;28;20033;-69
2022/07/29 07:03:18;;;;;;;6.43;1.88;;;16.70;99.90;;;;;;5071178;28;20037;-69
2022/07/29 07:05:45;;;;;;;5.63;1.88;;;16.80;99.90;;;;;;5070144;28;20045;-66
2022/07/29 07:08:11;;;;;;;4.70;2.35;;;16.70;99.90;;;;;;5069844;28;20055;-67
2022/07/29 07:10:37;;;;;;;5.65;2.05;;;16.80;99.90;;;;;;5069518;28;20041;-67
2022/07/29 07:13:04;;;;;;;4.28;1.92;;;16.90;99.90;;;;;;5071143;28;20110;-66
2022/07/29 07:15:29;;;;;;;3.03;1.77;;;16.90;99.90;;;;;;5069824;28;20040;-65
2022/07/29 07:17:55;;;;;;;4.85;2.22;;;16.90;99.90;;;;;;5071104;28;20040;-67
2022/07/29 07:20:21;;;;;;;5.57;2.17;;;16.90;99.90;;;;;;5069434;28;20450;-66
2022/07/29 07:22:47;;;;;;;5.95;1.80;;;17.00;99.90;;;;;;5069848;28;20125;-67
2022/07/29 07:25:13;;;;;;;5.60;2.22;;;16.90;99.90;;;;;;5070126;28;20048;-67
2022/07/29 07:27:39;;;;;;;6.38;2.35;;;16.90;99.90;;;;;;5071233;28;20414;-67
2022/07/29 07:30:06;;;;;;;4.97;1.88;;;16.90;99.90;;;;;;5070584;28;20028;-68
2022/07/29 07:32:33;;;;;;;6.47;2.35;;;16.90;99.90;;;;;;5069567;28;20128;-67
2022/07/29 07:34:59;;;;;;;3.25;1.80;;;16.90;99.90;;;;;;5071308;28;20110;-68
2022/07/29 07:37:25;;;;;;;5.43;1.85;;;16.90;99.90;;;;;;5070724;28;20044;-67
2022/07/29 07:39:51;;;;;;;4.07;2.20;;;16.90;99.90;;;;;;5070921;28;20055;-67
2022/07/29 07:42:17;;;;;;;4.60;2.45;;;17.00;99.90;;;;;;5072362;28;20044;-66
2022/07/29 07:44:43;;;;;;;10.25;3.55;;;16.90;99.90;;;;;;5074615;28;20046;-67
2022/07/29 07:47:08;;;;;;;5.63;1.90;;;16.90;99.90;;;;;;5056617;28;20044;-67
2022/07/29 07:49:34;;;;;;;4.72;2.33;;;16.90;99.90;;;;;;5073972;28;20044;-67
2022/07/29 07:52:00;;;;;;;3.58;2.08;;;17.10;99.90;;;;;;5074298;28;20402;-67
2022/07/29 07:54:26;;;;;;;6.00;1.90;;;17.00;99.90;;;;;;5074446;28;20115;-67
2022/07/29 07:56:51;;;;;;;6.13;2.28;;;17.20;99.90;;;;;;5074155;28;20405;-67
2022/07/29 07:59:17;;;;;;;3.95;2.17;;;17.20;99.90;;;;;;5073859;28;20037;-68
2022/07/29 08:01:42;;;;;;;4.78;2.03;;;17.30;99.90;;;;;;5074150;28;20141;-67
2022/07/29 08:04:08;;;;;;;3.92;2.47;;;17.40;99.90;;;;;;5073215;28;20037;-67
2022/07/29 08:06:35;;;;;;;4.70;2.45;;;17.40;99.90;;;;;;5074126;28;20055;-67
2022/07/29 08:09:02;;;;;;;5.15;2.00;;;17.50;99.90;;;;;;5072442;28;20128;-68
2022/07/29 08:11:28;;;;;;;4.22;2.63;;;17.50;99.90;;;;;;5072116;28;20119;-68
2022/07/29 08:13:54;;;;;;;5.25;2.42;;;17.70;99.90;;;;;;5072256;28;20162;-68
2022/07/29 08:16:19;;;;;;;4.57;2.10;;;17.70;99.90;;;;;;5073816;28;20043;-68
2022/07/29 08:18:45;;;;;;;5.90;2.22;;;17.70;99.90;;;;;;5074036;28;20509;-68
2022/07/29 08:21:12;;;;;;;4.90;2.05;;;17.60;99.90;;;;;;5072260;28;20040;-68
2022/07/29 08:23:38;;;;;;;9.63;2.42;;;17.80;99.90;;;;;;5074016;28;20099;-67
2022/07/29 08:26:05;;;;;;;8.27;2.05;;;17.80;99.90;;;;;;5072602;28;20076;-68
2022/07/29 08:28:31;;;;;;;9.20;3.22;;;17.90;99.90;;;;;;5073727;28;20391;-69
2022/07/29 08:30:56;;;;;;;5.95;2.60;;;17.90;99.80;;;;;;5073346;28;20093;-68
2022/07/29 08:33:22;;;;;;;7.38;2.70;;;18.00;99.60;;;;;;5072333;28;20045;-68
2022/07/29 08:35:49;;;;;;;7.18;2.42;;;18.00;99.30;;;;;;5072367;28;20086;-68
2022/07/29 08:38:15;;;;;;;7.07;2.20;;;18.10;99.20;;;;;;5055760;28;20033;-67
2022/07/29 08:40:40;;;;;;;3.47;2.10;;;18.10;98.90;;;;;;5073306;28;20486;-68
2022/07/29 08:43:08;;;;;;;6.78;2.50;;;18.10;98.70;;;;;;5073509;28;20041;-69
2022/07/29 08:45:45;;;;;;;7.20;2.50;;;18.00;98.60;;;;;;5073317;28;20094;-69
2022/07/29 08:48:23;;;;;;;8.43;2.20;;;18.10;98.50;;;;;;5072106;28;20036;-69
2022/07/29 08:50:54;;;;;;;6.40;2.38;;;18.20;98.00;;;;;;5073179;28;20123;-68
2022/07/29 08:53:20;;;;;;;8.52;2.78;;;18.20;98.00;;;;;;5073156;28;20119;-68
2022/07/29 08:55:48;;;;;;;4.63;2.08;;;18.20;98.00;;;;;;5073073;28;20474;-68
2022/07/29 08:58:14;;;;;;;6.93;2.40;;;18.30;97.80;;;;;;5072070;28;20047;-69
2022/07/29 09:00:52;;;;;;;10.23;2.45;;;18.40;97.60;;;;;;5073125;28;20036;-68
2022/07/29 09:03:24;;;;;;;5.57;3.17;;;18.40;97.00;;;;;;5071902;28;20086;-68
2022/07/29 09:05:50;;;;;;;3.97;1.90;;;18.40;96.90;;;;;;5073002;28;20416;-68
2022/07/29 09:08:17;;;;;;;6.45;2.33;;;18.40;96.90;;;;;;5071854;28;20055;-68
2022/07/29 09:10:43;;;;;;;5.80;2.10;;;18.40;96.50;;;;;;5071252;28;20498;-68
2022/07/29 09:13:09;;;;;;;8.70;2.35;;;18.40;96.60;;;;;;5071489;28;20119;-68
2022/07/29 09:15:34;;;;;;;3.92;2.53;;;18.50;96.60;;;;;;5073016;28;20511;-69
2022/07/29 09:18:01;;;;;;;8.80;2.47;;;18.60;96.40;;;;;;5071496;28;20039;-68
2022/07/29 09:21:57;;;;;;;4.88;2.30;;;18.70;95.90;;;;;;5071065;28;20032;-69
2022/07/29 09:23:13;;;;;;;8.30;2.40;;;18.70;96.10;;;;;;5071523;28;20051;-68
2022/07/29 09:25:40;;;;;;;3.25;1.80;;;18.70;96.10;;;;;;5072587;28;20421;-69
2022/07/29 09:28:14;;;;;;;4.88;2.13;;;18.70;96.10;;;;;;5072598;28;20571;-67
2022/07/29 09:30:54;;;;;;;5.35;2.38;;;18.70;95.50;;;;;;5072223;28;20494;-68
2022/07/29 09:33:31;;;;;;;3.00;2.28;;;18.70;95.40;;;;;;5071033;28;20056;-69
2022/07/29 09:36:03;;;;;;;6.50;2.40;;;18.60;95.70;;;;;;5071402;28;20201;-68
2022/07/29 09:38:29;;;;;;;7.60;2.83;;;18.60;95.50;;;;;;5071039;28;20051;-68
2022/07/29 09:41:03;;;;;;;5.18;2.47;;;18.60;95.70;;;;;;5072029;28;20028;-69
2022/07/29 09:43:29;;;;;;;5.88;2.80;;;18.60;95.50;;;;;;5072343;28;20032;-68
2022/07/29 09:45:54;;;;;;;6.35;2.60;;;18.50;95.80;;;;;;5071034;28;20044;-68
2022/07/29 09:48:23;;;;;;;8.05;2.53;;;18.50;95.60;;;;;;5070947;28;20527;-68
2022/07/29 09:50:50;;;;;;;5.25;2.60;;;18.50;95.70;;;;;;5070601;28;20076;-68
2022/07/29 09:53:39;;;;;;;7.00;2.30;;;18.50;95.80;;;;;;5070782;28;20048;-67
2022/07/29 09:56:05;;;;;;;5.60;2.65;;;18.50;95.20;;;;;;5070952;28;20036;-67
2022/07/29 09:58:33;;;;;;;6.10;3.13;;;18.50;95.40;;;;;;5071935;28;20036;-68
2022/07/29 10:00:59;;;;;;;3.85;2.20;;;18.50;95.60;;;;;;5070541;28;20072;-68
2022/07/29 10:03:25;;;;;;;4.30;2.38;;;18.60;96.30;;;;;;5072152;28;20041;-68
2022/07/29 10:06:08;;;;;;;3.78;2.25;;;18.60;96.00;;;;;;5070107;28;20506;-67
2022/07/29 10:08:34;;;;;;;4.32;2.35;;;18.70;95.60;;;;;;5070587;28;20123;-68
2022/07/29 10:11:17;;;;;;;4.20;2.50;;;18.70;95.70;;;;;;5071537;28;20043;-68
2022/07/29 10:13:45;;;;;;;6.35;2.38;;;18.80;95.50;;;;;;5070669;28;20102;-68
2022/07/29 10:16:11;;;;;;;6.45;2.35;;;18.90;95.60;;;;;;5070882;28;20482;-70
2022/07/29 10:18:39;;;;;;;6.68;2.60;;;18.90;95.70;;;;;;5068239;28;20113;-68
2022/07/29 10:21:04;;;;;;;6.88;4.50;;;19.00;95.70;;;;;;5069773;28;20119;-69
2022/07/29 10:23:31;;;;;;;6.25;2.60;;;19.00;95.80;;;;;;5071378;28;20075;-67
2022/07/29 10:25:57;;;;;;;7.07;3.63;;;19.10;95.70;;;;;;5071786;28;20040;-71
2022/07/29 10:28:24;;;;;;;9.57;3.65;;;19.20;95.40;;;;;;5070416;28;20040;-68
2022/07/29 10:30:52;;;;;;;6.20;3.17;;;19.10;95.40;;;;;;5070945;28;20558;-69
2022/07/29 10:34:07;;;;;;;6.95;3.08;;;19.20;95.50;;;;;;5069596;28;20040;-67
2022/07/29 10:37:00;;;;;;;5.15;2.80;;;19.20;95.20;;;;;;4992435;28;20048;-68
2022/07/29 10:39:49;;;;;;;4.73;2.83;;;19.20;95.50;;;;;;5051224;28;20063;-68
2022/07/29 10:42:24;;;;;;;5.18;2.60;;;19.20;95.60;;;;;;5051478;28;20037;-69
2022/07/29 10:44:51;;;;;;;6.65;2.83;;;19.30;96.50;;;;;;5050518;28;20037;-69
2022/07/29 10:47:35;;;;;;;5.65;2.38;;;19.40;96.70;;;;;;5051551;28;20044;-68
2022/07/29 10:50:05;;;;;;;6.25;3.03;;;19.40;95.90;;;;;;5050917;28;20051;-69
2022/07/29 10:52:49;;;;;;;6.13;2.40;;;19.50;96.10;;;;;;5049939;28;20159;-69
2022/07/29 10:55:39;;;;;;;8.25;2.58;;;19.60;96.10;;;;;;5035688;28;20498;-69
2022/07/29 10:58:13;;;;;;;8.75;2.85;;;19.60;95.90;;;;;;5051461;28;20033;-69
2022/07/29 11:00:39;;;;;;;9.82;3.00;;;19.70;95.60;;;;;;5049742;28;20525;-69
2022/07/29 11:03:04;;;;;;;5.25;3.20;;;19.70;95.80;;;;;;5051146;28;20045;-70
2022/07/29 11:05:50;;;;;;;6.40;2.58;;;19.70;95.80;;;;;;5051416;28;20037;-67
2022/07/29 11:08:23;;;;;;;7.88;2.95;;;19.70;95.60;;;;;;5050989;28;20037;-69
2022/07/29 11:10:50;;;;;;;5.85;2.78;;;19.80;95.90;;;;;;5049891;28;20037;-66
2022/07/29 11:13:54;;;;;;;5.35;2.78;;;19.90;95.70;;;;;;5051090;28;20045;-68
2022/07/29 11:16:23;;;;;;;7.63;3.25;;;19.90;95.40;;;;;;5033446;28;20107;-68
2022/07/29 11:19:10;;;;;;;6.35;2.45;;;20.00;95.40;;;;;;5054966;28;20572;-68
2022/07/29 11:21:37;;;;;;;6.15;2.60;;;20.10;95.30;;;;;;5053573;28;20052;-69
2022/07/29 11:24:17;;;;;;;6.88;2.70;;;20.20;95.50;;;;;;5055081;28;20144;-69
2022/07/29 11:26:43;;;;;;;7.40;3.10;;;20.20;94.90;;;;;;5055007;28;20041;-68
2022/07/29 11:29:17;;;;;;;9.15;3.20;;;20.30;94.60;;;;;;5054706;28;20040;-68
2022/07/29 11:31:54;;;;;;;8.25;3.08;;;20.30;94.10;;;;;;5054751;28;20041;-69
2022/07/29 11:34:33;;;;;;;5.30;2.55;;;20.30;94.10;;;;;;5053479;28;20502;-69
2022/07/29 11:37:13;;;;;;;5.07;3.00;;;20.40;94.20;;;;;;5036899;28;20652;-69
2022/07/29 11:39:47;;;;;;;6.00;2.70;;;20.40;94.20;;;;;;5052486;28;20510;-70
2022/07/29 11:42:16;;;;;;;6.95;2.97;;;20.70;94.10;;;;;;5054312;28;20048;-70
2022/07/29 11:45:07;;;;;;;6.53;3.70;;;20.80;93.90;;;;;;5058731;28;20040;-70
2022/07/29 11:47:39;;;;;;;8.85;3.50;;;20.90;93.60;;;;;;5054609;28;20055;-69
2022/07/29 11:50:11;;;;;;;7.57;2.80;;;20.90;93.30;;;;;;5099394;22;20498;-71
2022/07/29 11:52:48;;;;;;;7.35;2.70;;;21.10;93.40;;;;;;5094556;28;20032;-70
2022/07/29 11:55:19;;;;;;;9.18;2.85;;;21.20;92.90;;;;;;5094545;28;20036;-70
2022/07/29 11:57:47;;;;;;;8.02;2.95;;;21.30;92.50;;;;;;5094736;28;20432;-70
2022/07/29 12:00:25;;;;;;;4.63;2.67;;;21.60;91.40;;;;;;5093699;28;20036;-71
2022/07/29 12:02:51;;;;;;;6.10;2.42;;;21.60;90.40;;;;;;5094648;28;20036;-70
2022/07/29 12:05:17;;;;;;;5.53;2.60;;;21.80;90.10;;;;;;5094456;28;20455;-70
2022/07/29 12:07:43;;;;;;;6.22;3.55;;;21.90;88.60;;;;;;5094175;28;20093;-71
2022/07/29 12:10:09;;;;;;;8.27;3.58;;;21.90;87.30;;;;;;5094152;28;20035;-70
2022/07/29 12:12:35;;;;;;;8.40;2.83;;;21.90;87.50;;;;;;5094330;28;20040;-70
2022/07/29 12:15:17;;;;;;;11.88;2.92;;;22.00;88.10;;;;;;5094193;28;20047;-70
2022/07/29 12:17:43;;;;;;;6.68;3.00;;;22.00;87.70;;;;;;5093719;28;20038;-70
2022/07/29 12:20:09;;;;;;;8.88;3.30;;;22.00;87.20;;;;;;5092881;28;20039;-70
2022/07/29 12:22:37;;;;;;;9.63;3.40;;;21.90;86.70;;;;;;5093417;28;20031;-70
2022/07/29 12:25:06;;;;;;;7.47;3.28;;;22.00;86.50;;;;;;5093430;28;20960;-70
2022/07/29 12:27:32;;;;;;;8.50;3.30;;;22.10;86.30;;;;;;5092569;28;20033;-70
2022/07/29 12:30:04;;;;;;;6.70;3.13;;;22.30;86.60;;;;;;5092924;28;20036;-70
2022/07/29 12:32:37;;;;;;;5.80;2.88;;;22.40;85.40;;;;;;5093234;28;20043;-70
2022/07/29 12:35:05;;;;;;;6.88;2.80;;;22.50;85.50;;;;;;5094397;28;20105;-69
2022/07/29 12:37:34;;;;;;;9.95;3.30;;;22.50;84.70;;;;;;5092399;28;20044;-70
2022/07/29 12:40:00;;;;;;;8.38;3.63;;;22.50;84.10;;;;;;5093391;28;20469;-69
2022/07/29 12:42:25;;;;;;;8.55;3.30;;;22.50;84.00;;;;;;5093586;28;20044;-70
2022/07/29 12:44:51;;;;;;;10.18;2.78;;;22.40;83.50;;;;;;5093545;28;20040;-69
2022/07/29 12:47:18;;;;;;;5.80;2.95;;;22.40;84.00;;;;;;5093488;28;20115;-70
2022/07/29 12:49:46;;;;;;;5.65;2.83;;;22.40;83.30;;;;;;5093142;28;20040;-70
2022/07/29 12:52:28;;;;;;;5.50;2.88;;;22.30;82.40;;;;;;5093286;28;20036;-70
2022/07/29 12:54:54;;;;;;;7.10;2.67;;;22.40;82.50;;;;;;5093417;28;20039;-70
2022/07/29 12:57:20;;;;;;;6.20;2.80;;;22.40;83.40;;;;;;5093354;28;20402;-69
2022/07/29 12:59:57;;;;;;;6.30;2.85;;;22.30;83.50;;;;;;5092833;28;20048;-69